Time;durP1;ratioP1;P1;durP2;ratioP2;P2;SDS_P1;SDS_P2;PMS_P1;PMS_P2;Temp;Humidity;BMP_temperature;BMP_pressure;BME280_temperature;BME280_humidity;BME280_pressure;Samples;Min_cycle;Max_cycle;Signal;HPM_P1;HPM_P2
2024/03/12 00:01:25;;;;;;;41.40;35.30;;;;;;;;;;103717;1292;546264;-72
2024/03/12 00:04:57;;;;;;;45.50;35.00;;;;;;;;;;103854;1289;545028;-69
2024/03/12 00:08:39;;;;;;;44.20;35.10;;;;;;;;;;103353;1296;545419;-71
2024/03/12 00:12:15;;;;;;;44.10;34.90;;;;;;;;;;103803;1293;545450;-72
2024/03/12 00:15:54;;;;;;;42.50;34.20;;;;;;;;;;103824;1290;545481;-72
2024/03/12 00:19:33;;;;;;;41.00;32.50;;;;;;;;;;103846;1289;545475;-71
2024/03/12 00:23:09;;;;;;;43.10;33.70;;;;;;;;;;103434;1297;545445;-70
2024/03/12 00:26:42;;;;;;;42.70;32.60;;;;;;;;;;103788;1295;544956;-70
2024/03/12 00:30:24;;;;;;;42.10;32.70;;;;;;;;;;103798;1289;545445;-71
2024/03/12 00:34:00;;;;;;;41.20;33.20;;;;;;;;;;103765;1292;544755;-71
2024/03/12 00:37:38;;;;;;;44.30;34.50;;;;;;;;;;103724;1291;545055;-72
2024/03/12 00:41:15;;;;;;;47.20;34.90;;;;;;;;;;103842;1289;545006;-72
2024/03/12 00:44:53;;;;;;;46.10;34.50;;;;;;;;;;103737;1292;544963;-72
2024/03/12 00:48:27;;;;;;;43.00;34.00;;;;;;;;;;103915;1291;544846;-70
2024/03/12 00:52:08;;;;;;;43.20;33.90;;;;;;;;;;103631;1292;545475;-71
2024/03/12 00:55:47;;;;;;;41.00;32.40;;;;;;;;;;103794;1289;545057;-71
2024/03/12 00:59:22;;;;;;;40.40;33.40;;;;;;;;;;103756;1291;545416;-71
2024/03/12 01:03:00;;;;;;;42.50;34.60;;;;;;;;;;103730;1292;545544;-72
2024/03/12 01:06:37;;;;;;;44.10;34.10;;;;;;;;;;103752;1295;544626;-72
2024/03/12 01:10:20;;;;;;;41.40;33.40;;;;;;;;;;103796;1290;545601;-71
2024/03/12 01:13:58;;;;;;;41.60;33.20;;;;;;;;;;103908;1289;548023;-71
2024/03/12 01:17:29;;;;;;;40.60;32.30;;;;;;;;;;103693;1292;545446;-70
2024/03/12 01:21:08;;;;;;;42.80;33.80;;;;;;;;;;103978;1288;544856;-72
2024/03/12 01:24:45;;;;;;;44.00;33.80;;;;;;;;;;103866;1291;544693;-70
2024/03/12 01:28:22;;;;;;;44.20;34.80;;;;;;;;;;103748;1295;545321;-71
2024/03/12 01:31:59;;;;;;;43.40;34.80;;;;;;;;;;103918;1289;545574;-70
2024/03/12 01:35:40;;;;;;;45.80;34.60;;;;;;;;;;103766;1292;544952;-71
2024/03/12 01:39:25;;;;;;;41.80;32.80;;;;;;;;;;103845;1288;545297;-71
2024/03/12 01:42:53;;;;;;;45.00;35.20;;;;;;;;;;103761;1292;545006;-70
2024/03/12 01:46:34;;;;;;;44.60;34.90;;;;;;;;;;103722;1294;545547;-72
2024/03/12 01:50:07;;;;;;;42.60;34.30;;;;;;;;;;103759;1291;544993;-72
2024/03/12 01:53:45;;;;;;;43.60;35.30;;;;;;;;;;104044;1285;544719;-71
2024/03/12 01:57:22;;;;;;;46.20;36.20;;;;;;;;;;103749;1291;545008;-71
2024/03/12 02:00:58;;;;;;;41.10;34.20;;;;;;;;;;103965;1289;544960;-72
2024/03/12 02:04:37;;;;;;;43.00;34.00;;;;;;;;;;103983;1286;544945;-71
2024/03/12 02:08:14;;;;;;;44.80;34.40;;;;;;;;;;103562;1294;544868;-72
2024/03/12 02:11:58;;;;;;;45.40;36.20;;;;;;;;;;103638;1292;550589;-74
2024/03/12 02:15:29;;;;;;;44.60;35.10;;;;;;;;;;103798;1292;544810;-71
2024/03/12 02:19:10;;;;;;;46.00;35.70;;;;;;;;;;103878;1289;544732;-71
2024/03/12 02:22:44;;;;;;;45.30;36.10;;;;;;;;;;103748;1289;545128;-71
2024/03/12 02:26:21;;;;;;;46.90;36.80;;;;;;;;;;104082;1288;544779;-72
2024/03/12 02:29:58;;;;;;;48.70;37.70;;;;;;;;;;104600;1283;544736;-70
2024/03/12 02:33:36;;;;;;;45.80;37.50;;;;;;;;;;103729;1289;544873;-72
2024/03/12 02:37:13;;;;;;;44.20;35.80;;;;;;;;;;103734;1290;544998;-71
2024/03/12 02:40:51;;;;;;;44.90;36.80;;;;;;;;;;103578;1292;545411;-70
2024/03/12 02:44:37;;;;;;;45.40;36.10;;;;;;;;;;103713;1292;547802;-71
2024/03/12 02:48:15;;;;;;;45.50;35.60;;;;;;;;;;103660;1294;548135;-70
2024/03/12 02:51:45;;;;;;;44.10;35.10;;;;;;;;;;103836;1289;545237;-71
2024/03/12 02:55:22;;;;;;;46.40;35.70;;;;;;;;;;103747;1291;544774;-70
2024/03/12 02:59:04;;;;;;;44.10;35.50;;;;;;;;;;104485;1282;549156;-71
2024/03/12 03:02:37;;;;;;;43.40;34.70;;;;;;;;;;103793;1291;545769;-72
2024/03/12 03:06:14;;;;;;;47.00;36.50;;;;;;;;;;103748;1292;545793;-72
2024/03/12 03:09:51;;;;;;;45.10;36.20;;;;;;;;;;103843;1292;545807;-72
2024/03/12 03:13:28;;;;;;;44.70;36.10;;;;;;;;;;103702;1289;545780;-71
2024/03/12 03:17:07;;;;;;;44.60;36.30;;;;;;;;;;104066;1289;545663;-71
2024/03/12 03:20:42;;;;;;;44.50;35.30;;;;;;;;;;103681;1291;546056;-72
2024/03/12 03:24:20;;;;;;;42.50;34.00;;;;;;;;;;103727;1289;545180;-72
2024/03/12 03:27:58;;;;;;;42.00;34.20;;;;;;;;;;103777;1289;545006;-72
2024/03/12 03:31:36;;;;;;;43.00;32.90;;;;;;;;;;103687;1292;545536;-72
2024/03/12 03:35:13;;;;;;;40.70;32.90;;;;;;;;;;103942;1295;544773;-72
2024/03/12 03:38:50;;;;;;;45.80;35.30;;;;;;;;;;103657;1291;544726;-71
2024/03/12 03:42:28;;;;;;;52.50;39.70;;;;;;;;;;103804;1289;546424;-73
2024/03/12 03:46:06;;;;;;;48.90;37.80;;;;;;;;;;103722;1290;544753;-71
2024/03/12 03:49:46;;;;;;;49.70;37.50;;;;;;;;;;103674;1291;544943;-72
2024/03/12 03:53:20;;;;;;;44.10;35.00;;;;;;;;;;103864;1290;545434;-72
2024/03/12 03:56:58;;;;;;;52.10;39.70;;;;;;;;;;103670;1291;544780;-71
2024/03/12 04:00:36;;;;;;;61.00;44.10;;;;;;;;;;103801;1289;544786;-71
2024/03/12 04:04:15;;;;;;;57.30;42.60;;;;;;;;;;103739;1292;545521;-71
2024/03/12 04:07:50;;;;;;;57.50;43.20;;;;;;;;;;103851;1289;544953;-71
2024/03/12 04:11:48;;;;;;;67.70;47.80;;;;;;;;;;103867;1292;547931;-72
2024/03/12 04:15:06;;;;;;;75.80;52.00;;;;;;;;;;103826;1289;544942;-72
2024/03/12 04:18:48;;;;;;;76.50;51.10;;;;;;;;;;103831;1289;547878;-71
2024/03/12 04:22:21;;;;;;;79.60;53.00;;;;;;;;;;103779;1292;544990;-71
2024/03/12 04:25:57;;;;;;;86.00;55.30;;;;;;;;;;103803;1291;544993;-72
2024/03/12 04:29:35;;;;;;;92.30;58.80;;;;;;;;;;103782;1289;545319;-71
2024/03/12 04:33:12;;;;;;;93.00;57.40;;;;;;;;;;103936;1288;546162;-70
2024/03/12 04:36:50;;;;;;;88.60;57.10;;;;;;;;;;104349;1283;545746;-71
2024/03/12 04:40:27;;;;;;;88.60;56.60;;;;;;;;;;104078;1285;545172;-72
2024/03/12 04:44:05;;;;;;;88.70;54.90;;;;;;;;;;104061;1286;544895;-71
2024/03/12 04:47:42;;;;;;;87.70;56.30;;;;;;;;;;103720;1292;545078;-72
2024/03/12 04:51:20;;;;;;;87.90;57.60;;;;;;;;;;103673;1290;544781;-71
2024/03/12 04:54:57;;;;;;;86.10;56.90;;;;;;;;;;103619;1292;544974;-71
2024/03/12 04:58:36;;;;;;;89.30;56.30;;;;;;;;;;103738;1292;544785;-72
2024/03/12 05:02:12;;;;;;;84.60;52.80;;;;;;;;;;103755;1293;544984;-71
2024/03/12 05:05:50;;;;;;;82.10;52.70;;;;;;;;;;103776;1291;545359;-72
2024/03/12 05:09:28;;;;;;;79.30;50.40;;;;;;;;;;103685;1289;544927;-71
2024/03/12 05:13:04;;;;;;;74.00;51.00;;;;;;;;;;103795;1294;545046;-70
2024/03/12 05:16:42;;;;;;;73.90;50.30;;;;;;;;;;103775;1289;544848;-71
2024/03/12 05:20:23;;;;;;;75.20;49.40;;;;;;;;;;103671;1291;545713;-71
2024/03/12 05:23:57;;;;;;;70.80;47.50;;;;;;;;;;103793;1292;545339;-72
2024/03/12 05:27:37;;;;;;;67.60;46.00;;;;;;;;;;103822;1290;544741;-72
2024/03/12 05:31:20;;;;;;;62.30;42.90;;;;;;;;;;103684;1292;545383;-71
2024/03/12 05:34:58;;;;;;;59.20;42.10;;;;;;;;;;103773;1292;544977;-71
2024/03/12 05:38:44;;;;;;;56.20;39.30;;;;;;;;;;103507;1294;544820;-72
2024/03/12 05:49:20;;;;;;;60.30;43.00;;;;;;;;;;103891;1290;544999;-71
2024/03/12 05:52:57;;;;;;;60.80;47.10;;;;;;;;;;103855;1288;545345;-71
2024/03/12 05:56:37;;;;;;;56.20;42.30;;;;;;;;;;103764;1289;544885;-72
2024/03/12 06:00:12;;;;;;;54.50;41.20;;;;;;;;;;103728;1292;545432;-72
2024/03/12 06:03:53;;;;;;;52.90;39.30;;;;;;;;;;104301;1282;544996;-72
2024/03/12 06:07:26;;;;;;;56.40;40.90;;;;;;;;;;103768;1290;545787;-71
2024/03/12 06:11:04;;;;;;;54.90;39.70;;;;;;;;;;103786;1290;544792;-71
2024/03/12 06:14:43;;;;;;;55.80;40.10;;;;;;;;;;103561;1294;545642;-71
2024/03/12 06:18:22;;;;;;;55.80;39.50;;;;;;;;;;103777;1288;545131;-71
2024/03/12 06:21:56;;;;;;;53.40;37.90;;;;;;;;;;103684;1292;545678;-71
2024/03/12 06:25:30;;;;;;;53.80;38.40;;;;;;;;;;103749;1289;544988;-72
2024/03/12 06:29:11;;;;;;;49.50;37.10;;;;;;;;;;103468;1294;545620;-71
2024/03/12 06:32:49;;;;;;;54.40;38.40;;;;;;;;;;103467;1294;545023;-72
2024/03/12 06:36:26;;;;;;;51.10;38.00;;;;;;;;;;103911;1289;545094;-71
2024/03/12 06:40:02;;;;;;;47.80;36.60;;;;;;;;;;103782;1289;545071;-71
2024/03/12 06:43:41;;;;;;;48.50;36.30;;;;;;;;;;103578;1297;545859;-71
2024/03/12 06:47:19;;;;;;;47.30;35.00;;;;;;;;;;103685;1289;545455;-71
2024/03/12 06:50:56;;;;;;;48.30;35.80;;;;;;;;;;103905;1288;545649;-71
2024/03/12 06:54:34;;;;;;;49.40;35.40;;;;;;;;;;103789;1289;545460;-72
2024/03/12 06:58:18;;;;;;;47.40;36.30;;;;;;;;;;103744;1292;545328;-71
2024/03/12 07:01:53;;;;;;;49.50;35.00;;;;;;;;;;103779;1291;546118;-72
2024/03/12 07:05:29;;;;;;;46.30;34.60;;;;;;;;;;103728;1290;544825;-70
2024/03/12 07:09:09;;;;;;;47.80;35.20;;;;;;;;;;103758;1295;545571;-71
2024/03/12 07:12:42;;;;;;;45.40;32.40;;;;;;;;;;103731;1292;545529;-72
2024/03/12 07:16:19;;;;;;;43.70;32.50;;;;;;;;;;104048;1291;546289;-71
2024/03/12 07:19:58;;;;;;;42.70;31.50;;;;;;;;;;103725;1292;544956;-71
2024/03/12 07:23:30;;;;;;;37.20;29.00;;;;;;;;;;103886;1289;544751;-69
2024/03/12 07:27:13;;;;;;;43.90;32.20;;;;;;;;;;103867;1293;545126;-70
2024/03/12 07:30:58;;;;;;;41.30;31.00;;;;;;;;;;103773;1290;545518;-71
2024/03/12 07:34:26;;;;;;;38.10;29.60;;;;;;;;;;103784;1290;547440;-71
2024/03/12 07:38:00;;;;;;;39.10;29.30;;;;;;;;;;103965;1292;545041;-71
2024/03/12 07:41:41;;;;;;;38.60;30.50;;;;;;;;;;103767;1292;545265;-71
2024/03/12 07:45:24;;;;;;;37.60;29.30;;;;;;;;;;103644;1291;545478;-71
2024/03/12 07:48:56;;;;;;;34.60;26.50;;;;;;;;;;103734;1290;545826;-71
2024/03/12 07:52:41;;;;;;;37.10;28.30;;;;;;;;;;103754;1291;545831;-72
2024/03/12 07:56:14;;;;;;;39.40;30.10;;;;;;;;;;103706;1292;544798;-71
2024/03/12 07:59:49;;;;;;;38.00;30.10;;;;;;;;;;103855;1295;545224;-71
2024/03/12 08:03:26;;;;;;;38.30;29.80;;;;;;;;;;104566;1283;544810;-71
2024/03/12 08:07:04;;;;;;;36.20;28.80;;;;;;;;;;103810;1292;544819;-72
2024/03/12 08:10:40;;;;;;;36.50;28.80;;;;;;;;;;103694;1291;544780;-70
2024/03/12 08:14:19;;;;;;;36.80;27.30;;;;;;;;;;103953;1289;544762;-72
2024/03/12 08:28:22;;;;;;;35.60;28.50;;;;;;;;;;104464;1286;551650;-70
2024/03/12 08:31:18;;;;;;;39.50;28.50;;;;;;;;;;103653;1292;545674;-71
2024/03/12 08:34:54;;;;;;;35.30;26.90;;;;;;;;;;103815;1292;544968;-71
2024/03/12 08:38:32;;;;;;;33.60;27.40;;;;;;;;;;103907;1289;545032;-71
2024/03/12 08:42:09;;;;;;;32.70;27.00;;;;;;;;;;103919;1292;545074;-72
2024/03/12 08:45:48;;;;;;;34.00;28.60;;;;;;;;;;103761;1290;545056;-71
2024/03/12 08:49:24;;;;;;;38.50;28.60;;;;;;;;;;103659;1289;544873;-72
2024/03/12 08:53:01;;;;;;;39.60;31.30;;;;;;;;;;103556;1295;544793;-72
2024/03/12 08:56:40;;;;;;;37.30;28.50;;;;;;;;;;103795;1290;545070;-72
2024/03/12 09:00:18;;;;;;;35.40;27.90;;;;;;;;;;103898;1288;546137;-72
2024/03/12 09:03:54;;;;;;;32.60;28.40;;;;;;;;;;103760;1289;545946;-70
2024/03/12 09:07:38;;;;;;;30.00;24.60;;;;;;;;;;103701;1292;547596;-72
2024/03/12 09:11:09;;;;;;;29.90;23.80;;;;;;;;;;103768;1291;545512;-72
2024/03/12 09:14:47;;;;;;;29.40;25.20;;;;;;;;;;103929;1290;544964;-73
2024/03/12 09:18:24;;;;;;;30.10;24.40;;;;;;;;;;103805;1292;544983;-72
2024/03/12 09:22:03;;;;;;;27.00;22.90;;;;;;;;;;104048;1292;544809;-72
2024/03/12 09:25:41;;;;;;;28.40;21.90;;;;;;;;;;103611;1299;545028;-72
2024/03/12 09:29:17;;;;;;;25.60;21.50;;;;;;;;;;103785;1295;545069;-71
2024/03/12 09:32:53;;;;;;;28.40;22.50;;;;;;;;;;103982;1295;544932;-73
2024/03/12 09:36:32;;;;;;;29.90;23.10;;;;;;;;;;103931;1292;544890;-72
2024/03/12 09:40:14;;;;;;;25.80;20.20;;;;;;;;;;103651;1295;548548;-71
2024/03/12 09:43:46;;;;;;;26.20;20.90;;;;;;;;;;104533;1283;544961;-72
2024/03/12 09:47:23;;;;;;;21.00;17.10;;;;;;;;;;103776;1288;544863;-72
2024/03/12 09:51:01;;;;;;;22.80;18.30;;;;;;;;;;103796;1296;545051;-73
2024/03/12 09:54:38;;;;;;;23.30;18.20;;;;;;;;;;103824;1290;544852;-71
2024/03/12 09:58:16;;;;;;;23.10;17.60;;;;;;;;;;103494;1294;545470;-72
2024/03/12 10:01:49;;;;;;;22.40;18.40;;;;;;;;;;103845;1292;544792;-73
2024/03/12 10:05:31;;;;;;;24.30;18.80;;;;;;;;;;103972;1289;545178;-73
2024/03/12 10:09:08;;;;;;;22.00;17.50;;;;;;;;;;103837;1288;544761;-73
2024/03/12 10:12:47;;;;;;;21.60;17.30;;;;;;;;;;103965;1289;544731;-73
2024/03/12 10:16:28;;;;;;;21.80;16.60;;;;;;;;;;103857;1295;545775;-72
2024/03/12 10:20:15;;;;;;;20.30;15.90;;;;;;;;;;103689;1292;545511;-73
2024/03/12 10:23:40;;;;;;;19.70;14.90;;;;;;;;;;103936;1291;545126;-73
2024/03/12 10:27:15;;;;;;;20.00;14.20;;;;;;;;;;103567;1292;545949;-73
2024/03/12 10:30:53;;;;;;;16.30;13.40;;;;;;;;;;103751;1290;544967;-72
2024/03/12 10:34:30;;;;;;;14.70;11.30;;;;;;;;;;103625;1292;545172;-73
2024/03/12 10:38:07;;;;;;;15.00;11.90;;;;;;;;;;103807;1288;544921;-73
2024/03/12 10:41:45;;;;;;;15.60;12.00;;;;;;;;;;103691;1290;544958;-73
2024/03/12 10:45:24;;;;;;;15.40;12.40;;;;;;;;;;103777;1289;545751;-71
2024/03/12 10:49:03;;;;;;;14.50;11.60;;;;;;;;;;103755;1288;548051;-73
2024/03/12 10:52:38;;;;;;;17.20;12.10;;;;;;;;;;103754;1291;544790;-72
2024/03/12 10:56:18;;;;;;;15.10;11.00;;;;;;;;;;103760;1289;544975;-71
2024/03/12 10:59:53;;;;;;;12.60;10.00;;;;;;;;;;103754;1290;544779;-72
2024/03/12 11:03:31;;;;;;;14.00;9.80;;;;;;;;;;103503;1292;546242;-72
2024/03/12 11:07:08;;;;;;;14.00;10.00;;;;;;;;;;103835;1290;545563;-73
2024/03/12 11:10:47;;;;;;;13.10;9.40;;;;;;;;;;103633;1291;544810;-73
2024/03/12 11:14:22;;;;;;;12.70;9.30;;;;;;;;;;103855;1291;544748;-73
2024/03/12 11:18:06;;;;;;;13.50;9.20;;;;;;;;;;103788;1295;546299;-74
2024/03/12 11:21:38;;;;;;;12.50;9.30;;;;;;;;;;103749;1291;545047;-72
2024/03/12 11:25:25;;;;;;;12.50;9.40;;;;;;;;;;104278;1299;545332;-73
2024/03/12 11:28:52;;;;;;;12.80;8.80;;;;;;;;;;103732;1295;544975;-74
2024/03/12 11:32:43;;;;;;;10.80;8.00;;;;;;;;;;104098;1289;544886;-72
2024/03/12 11:36:11;;;;;;;11.80;8.30;;;;;;;;;;103634;1295;545063;-71
2024/03/12 11:39:45;;;;;;;11.00;8.00;;;;;;;;;;103815;1289;544960;-72
2024/03/12 11:43:41;;;;;;;11.80;8.30;;;;;;;;;;103768;1292;545002;-73
2024/03/12 11:47:00;;;;;;;14.20;8.90;;;;;;;;;;103759;1289;545744;-73
2024/03/12 11:50:39;;;;;;;18.50;9.50;;;;;;;;;;104118;1288;546113;-72
2024/03/12 11:54:34;;;;;;;13.80;8.30;;;;;;;;;;103840;1288;545263;-72
2024/03/12 11:57:54;;;;;;;11.70;8.10;;;;;;;;;;103829;1294;545629;-74
2024/03/12 12:01:34;;;;;;;13.60;10.00;;;;;;;;;;104177;1288;545037;-75
2024/03/12 12:05:09;;;;;;;10.90;8.20;;;;;;;;;;103550;1295;545188;-73
2024/03/12 12:08:44;;;;;;;11.50;7.50;;;;;;;;;;103761;1292;545514;-73
2024/03/12 12:12:22;;;;;;;15.00;9.30;;;;;;;;;;103653;1291;545038;-74
2024/03/12 12:16:01;;;;;;;12.60;7.80;;;;;;;;;;103794;1291;544718;-71
2024/03/12 12:19:34;;;;;;;12.10;8.20;;;;;;;;;;103761;1289;545587;-72
2024/03/12 12:23:14;;;;;;;12.10;7.30;;;;;;;;;;103740;1288;544855;-73
2024/03/12 12:26:53;;;;;;;10.70;7.00;;;;;;;;;;104418;1292;545392;-71
2024/03/12 12:30:30;;;;;;;12.50;8.70;;;;;;;;;;103504;1295;544924;-72
2024/03/12 12:34:05;;;;;;;12.50;8.20;;;;;;;;;;104564;1283;544960;-72
2024/03/12 12:37:45;;;;;;;14.70;9.60;;;;;;;;;;103806;1292;545548;-72
2024/03/12 12:41:22;;;;;;;12.30;8.60;;;;;;;;;;103875;1289;544926;-73
2024/03/12 12:45:04;;;;;;;14.30;8.40;;;;;;;;;;103905;1289;544961;-72
2024/03/12 12:48:42;;;;;;;10.20;7.30;;;;;;;;;;103449;1295;548086;-73
2024/03/12 12:52:13;;;;;;;12.40;7.40;;;;;;;;;;103742;1289;545051;-73
2024/03/12 12:55:56;;;;;;;10.90;8.00;;;;;;;;;;103587;1293;545582;-73
2024/03/12 12:59:32;;;;;;;11.90;8.10;;;;;;;;;;103818;1291;544760;-72
2024/03/12 13:03:10;;;;;;;12.20;7.60;;;;;;;;;;103733;1289;545671;-73
2024/03/12 13:06:49;;;;;;;10.90;6.90;;;;;;;;;;103766;1294;545539;-73
2024/03/12 13:10:21;;;;;;;13.10;7.70;;;;;;;;;;103528;1292;544862;-73
2024/03/12 13:13:59;;;;;;;13.00;7.40;;;;;;;;;;104143;1289;544873;-72
2024/03/12 13:17:35;;;;;;;10.40;6.70;;;;;;;;;;104173;1289;546233;-71
2024/03/12 13:21:15;;;;;;;10.30;6.90;;;;;;;;;;103687;1295;544803;-72
2024/03/12 13:25:00;;;;;;;11.40;7.90;;;;;;;;;;103673;1295;545405;-72
2024/03/12 13:28:34;;;;;;;12.30;8.90;;;;;;;;;;103857;1292;544978;-73
2024/03/12 13:32:10;;;;;;;11.60;7.60;;;;;;;;;;103788;1302;545984;-70
2024/03/12 13:36:10;;;;;;;12.70;7.80;;;;;;;;;;103787;1295;545366;-72
2024/03/12 13:39:21;;;;;;;12.10;7.80;;;;;;;;;;103887;1289;545138;-72
2024/03/12 13:42:55;;;;;;;10.80;7.30;;;;;;;;;;103839;1295;544916;-73
2024/03/12 13:46:36;;;;;;;9.00;6.20;;;;;;;;;;103778;1292;545478;-73
2024/03/12 13:50:13;;;;;;;13.00;7.10;;;;;;;;;;103901;1288;544828;-72
2024/03/12 13:53:56;;;;;;;10.10;6.90;;;;;;;;;;103735;1288;546070;-72
2024/03/12 13:57:28;;;;;;;11.60;7.60;;;;;;;;;;103776;1289;546109;-73
2024/03/12 14:01:09;;;;;;;11.30;7.90;;;;;;;;;;103623;1294;544940;-72
2024/03/12 14:04:49;;;;;;;10.20;6.80;;;;;;;;;;104088;1298;547993;-73
2024/03/12 14:08:21;;;;;;;10.40;7.10;;;;;;;;;;103780;1291;544957;-73
2024/03/12 14:12:04;;;;;;;9.50;6.50;;;;;;;;;;103603;1292;549264;-72
2024/03/12 14:15:33;;;;;;;13.00;8.80;;;;;;;;;;103812;1291;544746;-72
2024/03/12 14:19:09;;;;;;;10.80;7.40;;;;;;;;;;103874;1295;544990;-74
2024/03/12 14:22:52;;;;;;;10.30;6.50;;;;;;;;;;103734;1289;545304;-72
2024/03/12 14:26:29;;;;;;;10.10;6.70;;;;;;;;;;103824;1292;544970;-73
2024/03/12 14:30:09;;;;;;;11.00;7.20;;;;;;;;;;103856;1291;544835;-73
2024/03/12 14:33:43;;;;;;;31.10;20.90;;;;;;;;;;103740;1289;544989;-72
2024/03/12 14:37:20;;;;;;;17.90;14.80;;;;;;;;;;103903;1288;545068;-72
2024/03/12 14:40:59;;;;;;;14.30;9.20;;;;;;;;;;103782;1290;544970;-72
2024/03/12 14:44:35;;;;;;;18.50;13.50;;;;;;;;;;104233;1285;546261;-73
2024/03/12 14:48:13;;;;;;;13.60;9.40;;;;;;;;;;103744;1290;545545;-72
2024/03/12 14:51:50;;;;;;;15.40;10.00;;;;;;;;;;103796;1292;545806;-73
2024/03/12 14:55:28;;;;;;;14.50;9.40;;;;;;;;;;103760;1292;546054;-71
2024/03/12 14:59:05;;;;;;;14.50;9.30;;;;;;;;;;104250;1284;545398;-73
2024/03/12 15:02:43;;;;;;;18.60;12.90;;;;;;;;;;103885;1290;545926;-74
2024/03/12 15:06:20;;;;;;;18.60;11.70;;;;;;;;;;103724;1291;545258;-73
2024/03/12 15:09:57;;;;;;;18.70;12.30;;;;;;;;;;103905;1294;545055;-73
2024/03/12 15:13:36;;;;;;;17.70;11.30;;;;;;;;;;104217;1286;545222;-72
2024/03/12 15:17:09;;;;;;;15.60;10.40;;;;;;;;;;104281;1283;545818;-74
2024/03/12 15:20:50;;;;;;;13.80;9.50;;;;;;;;;;103751;1290;544994;-71
2024/03/12 15:24:29;;;;;;;13.60;9.20;;;;;;;;;;103930;1290;545897;-72
2024/03/12 15:28:05;;;;;;;13.80;9.20;;;;;;;;;;103794;1298;544928;-73
2024/03/12 15:31:45;;;;;;;16.00;11.90;;;;;;;;;;103762;1291;544837;-73
2024/03/12 15:35:25;;;;;;;17.50;13.50;;;;;;;;;;103662;1291;548225;-73
2024/03/12 15:38:57;;;;;;;16.40;13.00;;;;;;;;;;103780;1292;545187;-73
2024/03/12 15:42:35;;;;;;;15.40;12.30;;;;;;;;;;103758;1290;544933;-72
2024/03/12 15:46:19;;;;;;;18.30;11.90;;;;;;;;;;103726;1291;545424;-73
2024/03/12 15:49:50;;;;;;;17.90;14.40;;;;;;;;;;103654;1295;545136;-73
2024/03/12 15:53:27;;;;;;;16.90;12.10;;;;;;;;;;103883;1291;545429;-73
2024/03/12 15:57:00;;;;;;;18.40;11.90;;;;;;;;;;103731;1290;545800;-72
2024/03/12 16:00:42;;;;;;;15.60;11.20;;;;;;;;;;103858;1289;544794;-72
2024/03/12 16:04:19;;;;;;;14.70;10.70;;;;;;;;;;103754;1290;545979;-73
2024/03/12 16:07:58;;;;;;;18.40;13.40;;;;;;;;;;103923;1289;546328;-72
2024/03/12 16:11:32;;;;;;;16.60;12.00;;;;;;;;;;103884;1289;545319;-72
2024/03/12 16:15:12;;;;;;;18.10;13.10;;;;;;;;;;103769;1289;545374;-72
2024/03/12 16:18:49;;;;;;;18.40;12.50;;;;;;;;;;103557;1294;545053;-73
2024/03/12 16:22:27;;;;;;;16.60;11.30;;;;;;;;;;103558;1295;544851;-72
2024/03/12 16:26:04;;;;;;;38.00;21.50;;;;;;;;;;104584;1285;545030;-73
2024/03/12 16:29:42;;;;;;;52.70;32.80;;;;;;;;;;103506;1294;544928;-72
2024/03/12 16:33:20;;;;;;;86.50;48.30;;;;;;;;;;103532;1295;544875;-72
2024/03/12 16:36:57;;;;;;;229.40;105.30;;;;;;;;;;103859;1290;545099;-72
2024/03/12 16:40:35;;;;;;;159.50;75.50;;;;;;;;;;103755;1295;544725;-73
2024/03/12 16:44:14;;;;;;;70.70;39.70;;;;;;;;;;103734;1295;544987;-72
2024/03/12 16:47:46;;;;;;;72.10;42.20;;;;;;;;;;104595;1283;545348;-73
2024/03/12 16:51:27;;;;;;;49.70;31.20;;;;;;;;;;103540;1294;544802;-72
2024/03/12 16:55:04;;;;;;;60.90;38.00;;;;;;;;;;103684;1291;545984;-72
2024/03/12 16:58:42;;;;;;;57.20;36.40;;;;;;;;;;103596;1295;544985;-72
2024/03/12 17:02:20;;;;;;;66.50;46.00;;;;;;;;;;103751;1289;544822;-71
2024/03/12 17:05:57;;;;;;;56.20;41.20;;;;;;;;;;103836;1292;545548;-72
2024/03/12 17:09:36;;;;;;;52.00;37.70;;;;;;;;;;103548;1292;545906;-72
2024/03/12 17:13:12;;;;;;;45.80;33.60;;;;;;;;;;103500;1298;545421;-72
2024/03/12 17:16:51;;;;;;;51.30;36.10;;;;;;;;;;105754;1289;546077;-71
2024/03/12 17:20:29;;;;;;;53.20;38.30;;;;;;;;;;103878;1291;544993;-72
2024/03/12 17:24:04;;;;;;;56.80;39.60;;;;;;;;;;103858;1292;544775;-73
2024/03/12 17:27:42;;;;;;;53.40;39.00;;;;;;;;;;103785;1288;545009;-72
2024/03/12 17:31:19;;;;;;;52.80;38.20;;;;;;;;;;103763;1297;545135;-72
2024/03/12 17:34:59;;;;;;;55.50;37.80;;;;;;;;;;103613;1292;545108;-72
2024/03/12 17:38:35;;;;;;;60.30;40.60;;;;;;;;;;103815;1292;545589;-72
2024/03/12 17:42:14;;;;;;;63.80;47.20;;;;;;;;;;103692;1290;548036;-73
2024/03/12 17:45:48;;;;;;;64.00;45.20;;;;;;;;;;103807;1292;544760;-73
2024/03/12 17:49:32;;;;;;;52.60;38.70;;;;;;;;;;103813;1292;545870;-71
2024/03/12 17:53:09;;;;;;;41.90;30.60;;;;;;;;;;103790;1293;545024;-71
2024/03/12 17:56:48;;;;;;;57.70;39.70;;;;;;;;;;103750;1292;549392;-73
2024/03/12 18:00:19;;;;;;;51.60;35.40;;;;;;;;;;103489;1294;545998;-72
2024/03/12 18:03:58;;;;;;;49.00;31.50;;;;;;;;;;103893;1292;545310;-71
2024/03/12 18:07:36;;;;;;;41.40;28.90;;;;;;;;;;103757;1288;547963;-73
2024/03/12 18:11:11;;;;;;;38.60;25.90;;;;;;;;;;103694;1297;544989;-73
2024/03/12 18:14:45;;;;;;;37.00;23.30;;;;;;;;;;103965;1289;544962;-71
2024/03/12 18:18:32;;;;;;;30.00;20.20;;;;;;;;;;103610;1292;548224;-72
2024/03/12 18:22:02;;;;;;;31.00;19.50;;;;;;;;;;103801;1289;544907;-71
2024/03/12 18:25:41;;;;;;;29.00;19.00;;;;;;;;;;104132;1286;544936;-72
2024/03/12 18:29:18;;;;;;;34.40;24.90;;;;;;;;;;103853;1289;545271;-73
2024/03/12 18:32:56;;;;;;;35.00;26.60;;;;;;;;;;103679;1291;545980;-72
2024/03/12 18:36:35;;;;;;;35.50;24.50;;;;;;;;;;103943;1288;544978;-72
2024/03/12 18:40:12;;;;;;;31.30;21.30;;;;;;;;;;103846;1291;545285;-72
2024/03/12 18:43:48;;;;;;;29.90;20.70;;;;;;;;;;103587;1293;545574;-72
2024/03/12 18:47:25;;;;;;;45.30;27.80;;;;;;;;;;103942;1288;545018;-72
2024/03/12 18:51:04;;;;;;;33.10;22.20;;;;;;;;;;103832;1288;545033;-71
2024/03/12 18:54:41;;;;;;;33.60;22.00;;;;;;;;;;103756;1294;544981;-72
2024/03/12 18:58:18;;;;;;;29.50;18.50;;;;;;;;;;103826;1295;545672;-72
2024/03/12 19:02:01;;;;;;;28.80;17.60;;;;;;;;;;103850;1289;544856;-72
2024/03/12 19:05:29;;;;;;;51.20;30.90;;;;;;;;;;103843;1302;544778;-72
2024/03/12 19:09:15;;;;;;;47.90;29.60;;;;;;;;;;103562;1294;545660;-71
2024/03/12 19:12:49;;;;;;;33.90;21.80;;;;;;;;;;103699;1294;545057;-71
2024/03/12 19:16:26;;;;;;;39.60;22.20;;;;;;;;;;103686;1291;545548;-73
2024/03/12 19:20:09;;;;;;;67.40;31.20;;;;;;;;;;103708;1292;544928;-72
2024/03/12 19:23:42;;;;;;;49.60;26.40;;;;;;;;;;103696;1291;545155;-72
2024/03/12 19:27:23;;;;;;;27.20;15.30;;;;;;;;;;103731;1295;544860;-72
2024/03/12 19:31:01;;;;;;;28.70;15.70;;;;;;;;;;103639;1291;547814;-75
2024/03/12 19:34:33;;;;;;;23.50;14.50;;;;;;;;;;103733;1292;544995;-71
2024/03/12 19:38:11;;;;;;;29.00;17.10;;;;;;;;;;103581;1294;544769;-72
2024/03/12 19:41:44;;;;;;;22.70;14.70;;;;;;;;;;103959;1289;545612;-71
2024/03/12 19:45:28;;;;;;;22.40;13.40;;;;;;;;;;103445;1294;545308;-71
2024/03/12 19:49:04;;;;;;;21.00;13.60;;;;;;;;;;103749;1292;545895;-72
2024/03/12 19:52:46;;;;;;;75.20;53.00;;;;;;;;;;103775;1291;544811;-72
2024/03/12 19:56:24;;;;;;;21.50;14.10;;;;;;;;;;103745;1289;547790;-75
2024/03/12 20:00:12;;;;;;;17.80;12.20;;;;;;;;;;103760;1291;547982;-74
2024/03/12 20:03:32;;;;;;;15.90;11.20;;;;;;;;;;103693;1291;545001;-75
2024/03/12 20:07:17;;;;;;;20.00;13.30;;;;;;;;;;103713;1291;547983;-72
2024/03/12 20:10:47;;;;;;;15.00;9.90;;;;;;;;;;103789;1291;545056;-71
2024/03/12 20:14:27;;;;;;;20.30;13.30;;;;;;;;;;103752;1291;545087;-73
2024/03/12 20:18:02;;;;;;;15.90;10.70;;;;;;;;;;103763;1292;544700;-72
2024/03/12 20:21:44;;;;;;;20.80;14.50;;;;;;;;;;103777;1295;544979;-72
2024/03/12 20:25:18;;;;;;;16.20;10.60;;;;;;;;;;104492;1285;544793;-72
2024/03/12 20:28:55;;;;;;;14.20;10.10;;;;;;;;;;103790;1293;545061;-72
2024/03/12 20:32:33;;;;;;;14.90;10.40;;;;;;;;;;103637;1291;544778;-73
2024/03/12 20:36:12;;;;;;;14.70;10.70;;;;;;;;;;103802;1291;545472;-73
2024/03/12 20:39:44;;;;;;;16.10;9.90;;;;;;;;;;104012;1292;545331;-72
2024/03/12 20:43:24;;;;;;;13.80;10.20;;;;;;;;;;104238;1288;544991;-73
2024/03/12 20:47:02;;;;;;;13.80;9.80;;;;;;;;;;103813;1291;545156;-72